Time;durP1;ratioP1;P1;durP2;ratioP2;P2;SDS_P1;SDS_P2;PMS_P1;PMS_P2;Temp;Humidity;BMP_temperature;BMP_pressure;BME280_temperature;BME280_humidity;BME280_pressure;Samples;Min_cycle;Max_cycle;Signal;HPM_P1;HPM_P2
2023/05/09 00:00:36;;;;;;;21.48;13.05;;;;;;;22.41;53.74;96671.47;5007541;28;20446;-57
2023/05/09 00:03:05;;;;;;;22.67;13.43;;;;;;;22.51;51.96;96663.75;5004628;28;20087;-57
2023/05/09 00:05:33;;;;;;;22.38;13.80;;;;;;;22.20;53.63;96669.91;5005393;28;20085;-56
2023/05/09 00:08:02;;;;;;;23.17;13.43;;;;;;;22.30;52.94;96657.84;5003574;28;20652;-57
2023/05/09 00:10:30;;;;;;;30.05;14.50;;;;;;;22.36;52.82;96657.84;5004936;28;20096;-58
2023/05/09 00:12:59;;;;;;;22.15;12.80;;;;;;;22.43;51.60;96647.88;5006292;28;20085;-57
2023/05/09 00:15:30;;;;;;;22.88;14.00;;;;;;;22.44;51.79;96646.03;5006058;28;20107;-60
2023/05/09 00:17:59;;;;;;;20.88;12.52;;;;;;;22.37;52.76;96643.38;5005479;28;20089;-61
2023/05/09 00:20:27;;;;;;;24.23;14.43;;;;;;;21.99;53.56;96648.69;5002216;28;20088;-61
2023/05/09 00:22:56;;;;;;;24.63;14.63;;;;;;;21.72;54.18;96648.75;5000553;28;20085;-59
2023/05/09 00:25:25;;;;;;;23.33;14.55;;;;;;;22.09;53.37;96643.66;5005573;28;20089;-60
2023/05/09 00:27:54;;;;;;;26.88;14.80;;;;;;;22.32;52.23;96639.66;5015146;28;20139;-60
2023/05/09 00:30:23;;;;;;;22.83;13.75;;;;;;;22.35;52.00;96639.25;5012754;28;20067;-58
2023/05/09 00:32:53;;;;;;;24.70;13.43;;;;;;;22.31;50.88;96643.41;5004375;28;20096;-61
2023/05/09 00:35:21;;;;;;;22.67;13.77;;;;;;;22.16;51.07;96651.72;5002814;28;20810;-60
2023/05/09 00:37:49;;;;;;;24.73;13.27;;;;;;;22.16;51.70;96647.19;5003528;28;20093;-57
2023/05/09 00:40:18;;;;;;;24.15;13.70;;;;;;;22.09;51.37;96648.19;5006606;28;20080;-62
2023/05/09 00:42:46;;;;;;;23.88;12.45;;;;;;;21.85;52.84;96647.03;5005687;28;20111;-54
2023/05/09 00:45:14;;;;;;;22.70;13.10;;;;;;;21.91;52.37;96638.97;5005336;28;20599;-53
2023/05/09 00:47:43;;;;;;;22.25;13.18;;;;;;;22.01;52.76;96639.34;5003735;28;20090;-58
2023/05/09 00:50:13;;;;;;;21.77;12.68;;;;;;;21.97;53.95;96629.25;5004772;28;21447;-53
2023/05/09 00:52:42;;;;;;;23.92;12.70;;;;;;;22.00;53.11;96629.66;5002868;28;20096;-61
2023/05/09 00:55:10;;;;;;;23.60;13.50;;;;;;;21.94;53.29;96625.13;5007586;28;20817;-59
2023/05/09 00:57:39;;;;;;;26.02;13.50;;;;;;;22.13;52.28;96628.78;5005745;28;20073;-54
2023/05/09 01:00:11;;;;;;;24.42;14.60;;;;;;;22.20;51.84;96629.59;5000023;28;20233;-60
2023/05/09 01:02:41;;;;;;;23.05;13.05;;;;;;;22.11;52.03;96621.97;5001848;28;20081;-59
2023/05/09 01:05:09;;;;;;;21.05;12.90;;;;;;;22.13;53.10;96611.84;5005417;28;20085;-59
2023/05/09 01:07:44;;;;;;;23.83;13.50;;;;;;;22.26;52.66;96611.78;5004949;28;20085;-56
2023/05/09 01:10:19;;;;;;;22.38;13.55;;;;;;;22.26;53.38;96606.41;5002990;28;20050;-58
2023/05/09 01:12:50;;;;;;;21.25;12.63;;;;;;;22.25;53.72;96604.78;5004517;28;20085;-54
2023/05/09 01:15:23;;;;;;;20.95;12.60;;;;;;;22.40;51.97;96601.78;5001367;28;20529;-56
2023/05/09 01:17:55;;;;;;;22.10;12.77;;;;;;;22.43;50.76;96601.38;5004136;28;20615;-61
2023/05/09 01:20:32;;;;;;;21.45;13.75;;;;;;;22.31;51.33;96598.56;5000164;28;20104;-54
2023/05/09 01:23:15;;;;;;;22.35;12.93;;;;;;;22.32;51.41;96594.81;5008626;28;20092;-63
2023/05/09 01:25:56;;;;;;;22.63;15.45;;;;;;;22.39;51.07;96592.09;5009810;28;20110;-57
2023/05/09 01:28:38;;;;;;;24.27;15.85;;;;;;;22.36;50.02;96600.59;5010369;28;20054;-56
2023/05/09 01:31:08;;;;;;;21.30;14.85;;;;;;;22.32;50.04;96594.81;5008119;28;20062;-60
2023/05/09 01:33:39;;;;;;;24.10;16.58;;;;;;;22.36;50.05;96598.72;5000785;28;20097;-61
2023/05/09 01:36:11;;;;;;;24.45;16.38;;;;;;;22.34;49.52;96598.13;5004120;28;20141;-60
2023/05/09 01:38:42;;;;;;;25.05;15.85;;;;;;;22.33;49.69;96590.25;5007959;28;20469;-58
2023/05/09 01:41:11;;;;;;;;;;;;;;;22.26;49.67;96592.97;5001763;28;20089;-58
2023/05/09 01:43:40;;;;;;;28.67;17.08;;;;;;;21.97;52.13;96592.47;5004389;28;19980;-55
2023/05/09 01:46:10;;;;;;;25.15;16.70;;;;;;;21.80;52.56;96600.19;5006081;28;20529;-62
2023/05/09 01:48:39;;;;;;;25.55;16.25;;;;;;;21.92;52.17;96596.84;5002363;28;20505;-60
2023/05/09 01:51:09;;;;;;;25.95;16.77;;;;;;;21.97;51.88;96597.03;5004646;28;20081;-63
2023/05/09 01:53:38;;;;;;;26.45;16.48;;;;;;;21.75;53.84;96604.56;5005628;28;20085;-57
2023/05/09 01:56:08;;;;;;;27.17;17.08;;;;;;;21.63;54.67;96600.88;5003316;28;20486;-61
2023/05/09 01:58:37;;;;;;;23.73;16.55;;;;;;;21.80;53.81;96604.72;5001528;28;20085;-62
2023/05/09 02:01:06;;;;;;;25.05;17.45;;;;;;;21.86;52.70;96595.03;5003195;28;20085;-60
2023/05/09 02:03:37;;;;;;;24.20;16.77;;;;;;;21.80;52.44;96599.38;5003765;28;20120;-59
2023/05/09 02:06:06;;;;;;;24.45;16.70;;;;;;;21.83;50.95;96598.13;5002280;28;20073;-58
2023/05/09 02:08:34;;;;;;;24.25;15.88;;;;;;;21.79;50.78;96595.03;5003423;28;20089;-53
2023/05/09 02:11:03;;;;;;;24.23;15.75;;;;;;;21.24;53.21;96584.63;5001589;28;20046;-58
2023/05/09 02:13:31;;;;;;;24.63;15.93;;;;;;;21.26;53.22;96582.53;5004010;28;20077;-60
2023/05/09 02:16:00;;;;;;;24.33;14.63;;;;;;;20.87;54.55;96580.72;4998955;28;20108;-59
2023/05/09 02:18:31;;;;;;;25.88;16.50;;;;;;;21.01;54.17;96586.91;5004594;28;20089;-60
2023/05/09 02:21:01;;;;;;;21.27;14.27;;;;;;;20.96;54.10;96576.81;4999805;28;20116;-63
2023/05/09 02:23:29;;;;;;;24.75;16.35;;;;;;;20.21;57.99;96580.63;5001231;28;20089;-58
2023/05/09 02:25:58;;;;;;;22.67;14.88;;;;;;;21.08;53.75;96577.00;5001446;28;20082;-63
2023/05/09 02:28:29;;;;;;;25.70;15.43;;;;;;;21.22;52.26;96578.63;5005557;28;20076;-61
2023/05/09 02:30:59;;;;;;;22.33;14.82;;;;;;;21.25;51.96;96580.06;5006103;28;20089;-60
2023/05/09 02:33:32;;;;;;;22.33;14.63;;;;;;;21.24;51.23;96578.44;4999261;28;20112;-56
2023/05/09 02:36:03;;;;;;;22.67;14.85;;;;;;;21.28;51.04;96577.78;5000625;28;20104;-63
2023/05/09 02:38:32;;;;;;;20.83;13.52;;;;;;;21.32;50.50;96570.97;4989388;28;20050;-58
2023/05/09 02:41:00;;;;;;;21.80;12.90;;;;;;;21.03;51.45;96574.13;5001217;28;20090;-55
2023/05/09 02:43:28;;;;;;;20.58;13.40;;;;;;;21.04;50.63;96575.75;5004483;28;20086;-53
2023/05/09 02:45:57;;;;;;;17.88;12.25;;;;;;;20.86;51.45;96579.06;5001496;28;20085;-56
2023/05/09 02:48:25;;;;;;;19.50;12.50;;;;;;;20.18;54.42;96578.34;5002076;28;20077;-61
2023/05/09 02:50:57;;;;;;;17.70;11.55;;;;;;;20.50;52.49;96579.41;5001820;28;20081;-61
2023/05/09 02:53:28;;;;;;;16.65;11.52;;;;;;;20.42;51.85;96574.28;5006037;28;20053;-62
2023/05/09 02:55:58;;;;;;;16.40;11.45;;;;;;;20.61;50.96;96574.31;5010623;28;20062;-54
2023/05/09 02:58:26;;;;;;;16.33;10.20;;;;;;;20.67;49.95;96575.34;5000525;28;20082;-59
2023/05/09 03:00:55;;;;;;;16.17;10.50;;;;;;;20.67;50.46;96570.00;5003683;28;20093;-51
2023/05/09 03:03:24;;;;;;;16.52;10.80;;;;;;;20.57;50.40;96570.38;5006624;28;20077;-56
2023/05/09 03:05:52;;;;;;;16.95;10.52;;;;;;;20.40;51.79;96569.09;5005362;28;20088;-54
2023/05/09 03:08:20;;;;;;;15.43;10.20;;;;;;;20.60;50.57;96569.16;5000974;28;20077;-58
2023/05/09 03:10:50;;;;;;;14.55;9.68;;;;;;;20.28;52.00;96562.72;5004871;28;20097;-58
2023/05/09 03:13:18;;;;;;;13.55;9.65;;;;;;;20.52;52.88;96556.78;5004599;28;20088;-59
2023/05/09 03:15:47;;;;;;;14.90;9.93;;;;;;;20.81;50.69;96552.88;5001791;28;20529;-61
2023/05/09 03:18:15;;;;;;;15.32;9.63;;;;;;;20.98;49.86;96553.28;5001237;28;20085;-61
2023/05/09 03:20:43;;;;;;;14.35;9.52;;;;;;;20.89;50.10;96554.53;5003960;28;20093;-58
2023/05/09 03:23:12;;;;;;;12.73;9.23;;;;;;;20.81;49.58;96552.88;5003991;28;20560;-59
2023/05/09 03:25:40;;;;;;;13.05;9.25;;;;;;;20.80;50.44;96553.09;5004328;28;20077;-59
2023/05/09 03:28:10;;;;;;;14.02;9.52;;;;;;;20.85;50.58;96551.44;5003882;28;20100;-55
2023/05/09 03:30:38;;;;;;;12.50;8.40;;;;;;;20.88;49.71;96558.22;5004919;28;20192;-58
2023/05/09 03:33:07;;;;;;;14.68;8.43;;;;;;;20.85;49.72;96556.81;5003996;28;20599;-59
2023/05/09 03:35:35;;;;;;;14.07;9.07;;;;;;;20.69;50.25;96549.19;5007305;28;20724;-61
2023/05/09 03:38:04;;;;;;;13.32;8.75;;;;;;;20.71;51.33;96547.09;5004047;28;20085;-59
2023/05/09 03:40:32;;;;;;;14.57;9.15;;;;;;;20.69;52.21;96543.81;5004283;28;20086;-59
2023/05/09 03:43:01;;;;;;;15.00;8.70;;;;;;;20.49;52.62;96543.78;5005742;28;20093;-61
2023/05/09 03:45:30;;;;;;;13.77;8.85;;;;;;;20.40;52.46;96547.66;5008676;28;20526;-56
2023/05/09 03:47:59;;;;;;;13.95;9.45;;;;;;;20.53;51.95;96542.34;5003819;28;20078;-61
2023/05/09 03:50:27;;;;;;;15.18;9.73;;;;;;;20.33;52.60;96538.81;5005809;28;20097;-61
2023/05/09 03:52:55;;;;;;;15.77;10.00;;;;;;;20.45;52.51;96541.72;5002284;28;20494;-59
2023/05/09 03:55:24;;;;;;;18.98;9.73;;;;;;;20.53;52.36;96549.56;5002017;28;20573;-53
2023/05/09 03:57:52;;;;;;;22.85;10.32;;;;;;;20.63;50.97;96540.09;5002727;28;20545;-57
2023/05/09 04:00:21;;;;;;;23.50;10.88;;;;;;;20.47;51.78;96548.50;5004030;28;20085;-57
2023/05/09 04:02:51;;;;;;;13.93;9.52;;;;;;;20.31;53.53;96546.22;4998465;28;20082;-59
2023/05/09 04:05:19;;;;;;;17.35;10.07;;;;;;;20.11;54.00;96547.00;5000152;28;20085;-62
2023/05/09 04:07:48;;;;;;;14.75;9.77;;;;;;;20.54;51.57;96552.06;5001802;28;20674;-60
2023/05/09 04:10:16;;;;;;;14.88;10.35;;;;;;;20.55;50.83;96552.88;5002440;28;20103;-56
2023/05/09 04:12:44;;;;;;;15.57;10.40;;;;;;;20.54;51.60;96559.25;5007398;28;20474;-62
2023/05/09 04:15:13;;;;;;;16.70;10.20;;;;;;;20.73;50.08;96563.00;5009949;28;20077;-58
2023/05/09 04:17:41;;;;;;;16.42;10.35;;;;;;;20.56;50.31;96560.72;5008848;28;20081;-61
2023/05/09 04:20:12;;;;;;;15.48;10.80;;;;;;;20.94;49.46;96560.09;5005763;28;20077;-60
2023/05/09 04:22:40;;;;;;;18.45;11.75;;;;;;;22.43;45.39;96550.31;5007630;28;20084;-62
2023/05/09 04:25:11;;;;;;;16.63;11.05;;;;;;;23.29;43.18;96551.47;5011655;28;20097;-60
2023/05/09 04:27:40;;;;;;;15.05;9.27;;;;;;;23.15;42.38;96558.84;4998220;28;20078;-58
2023/05/09 04:30:10;;;;;;;14.40;9.73;;;;;;;22.12;44.13;96556.47;5008083;28;20108;-57
2023/05/09 04:32:38;;;;;;;14.98;9.77;;;;;;;22.01;44.58;96558.78;5007474;28;20081;-59
2023/05/09 04:35:08;;;;;;;13.57;9.27;;;;;;;21.95;44.39;96556.94;5007884;28;20089;-59
2023/05/09 04:37:37;;;;;;;14.30;10.38;;;;;;;22.43;43.98;96547.63;5007186;28;20072;-61
2023/05/09 04:40:07;;;;;;;14.03;10.30;;;;;;;23.27;42.14;96558.97;5007189;28;20478;-53
2023/05/09 04:42:36;;;;;;;13.88;9.88;;;;;;;22.69;43.05;96552.81;5005380;28;20085;-62
2023/05/09 04:45:06;;;;;;;13.38;10.43;;;;;;;22.92;42.60;96554.09;5005119;28;20093;-57
2023/05/09 04:47:34;;;;;;;12.73;10.03;;;;;;;23.61;41.51;96547.63;5005971;28;20077;-61
2023/05/09 04:50:02;;;;;;;11.45;10.10;;;;;;;24.63;39.60;96541.53;5005148;28;20054;-60
2023/05/09 04:52:31;;;;;;;12.43;10.20;;;;;;;24.25;39.68;96539.97;5011258;28;20121;-58
2023/05/09 04:55:01;;;;;;;14.68;9.02;;;;;;;23.50;41.14;96537.56;5004480;28;20085;-57
2023/05/09 04:57:29;;;;;;;11.03;9.30;;;;;;;24.24;40.34;96532.94;5006770;28;20085;-57
2023/05/09 04:59:57;;;;;;;12.95;8.93;;;;;;;24.48;39.64;96527.66;5009061;28;20504;-59
2023/05/09 05:02:26;;;;;;;11.52;8.80;;;;;;;24.72;39.00;96531.22;5006582;28;20577;-60
2023/05/09 05:04:54;;;;;;;12.57;8.45;;;;;;;24.73;39.22;96530.16;5002497;28;20085;-59
2023/05/09 05:07:42;;;;;;;11.07;7.97;;;;;;;24.37;39.31;96532.75;4993824;28;20755;-56
2023/05/09 05:10:12;;;;;;;10.02;8.63;;;;;;;24.43;39.29;96538.31;5009036;28;20085;-54
2023/05/09 05:12:40;;;;;;;9.80;8.80;;;;;;;23.08;40.67;96539.28;5002556;28;20085;-53
2023/05/09 05:15:10;;;;;;;11.13;8.40;;;;;;;23.82;40.34;96524.00;5006458;28;20500;-58
2023/05/09 05:17:38;;;;;;;9.02;8.13;;;;;;;24.36;39.19;96524.88;5007754;28;20085;-57
2023/05/09 05:20:09;;;;;;;9.82;8.80;;;;;;;23.48;40.44;96525.41;5008633;28;20089;-59
2023/05/09 05:22:37;;;;;;;8.98;8.07;;;;;;;24.89;38.78;96523.28;5007653;28;20088;-61
2023/05/09 05:25:07;;;;;;;11.40;8.00;;;;;;;24.05;39.30;96532.16;5008395;28;20092;-60
2023/05/09 05:27:37;;;;;;;13.05;8.27;;;;;;;23.26;40.64;96530.41;5012729;28;20156;-56
2023/05/09 05:30:06;;;;;;;10.75;7.93;;;;;;;24.52;39.61;96523.44;5006563;28;20085;-56
2023/05/09 05:32:34;;;;;;;9.23;7.88;;;;;;;23.22;41.29;96535.41;5000369;28;20081;-60
2023/05/09 05:35:03;;;;;;;11.07;9.65;;;;;;;24.70;39.07;96525.22;5008677;28;20140;-52
2023/05/09 05:37:32;;;;;;;11.50;7.50;;;;;;;24.35;40.06;96524.06;5006589;28;20092;-60
2023/05/09 05:40:00;;;;;;;8.38;6.50;;;;;;;23.68;40.62;96526.03;5008777;28;20089;-60
2023/05/09 05:42:28;;;;;;;9.52;7.40;;;;;;;23.36;41.01;96533.41;5007056;28;20073;-62
2023/05/09 05:45:03;;;;;;;9.30;7.50;;;;;;;23.67;41.04;96525.22;5009246;28;20459;-61
2023/05/09 05:47:31;;;;;;;11.57;7.38;;;;;;;22.63;41.86;96532.19;5007616;28;20084;-62
2023/05/09 05:50:01;;;;;;;9.32;6.90;;;;;;;22.62;43.26;96533.22;5004820;28;20085;-61
2023/05/09 05:52:30;;;;;;;12.43;7.68;;;;;;;22.66;42.47;96545.19;5008651;28;20080;-57
2023/05/09 05:54:59;;;;;;;9.73;7.50;;;;;;;21.74;43.79;96544.66;5011039;28;20085;-60
2023/05/09 05:57:27;;;;;;;12.93;7.22;;;;;;;21.16;45.71;96538.41;5006739;28;20093;-62
2023/05/09 05:59:55;;;;;;;8.80;7.05;;;;;;;21.06;46.63;96537.00;5010841;28;20061;-57
2023/05/09 06:02:25;;;;;;;15.15;7.55;;;;;;;22.20;44.59;96535.59;5001056;28;20085;-60
2023/05/09 06:04:54;;;;;;;10.63;7.97;;;;;;;20.85;48.03;96542.56;5007533;28;20619;-60
2023/05/09 06:07:28;;;;;;;9.65;7.72;;;;;;;22.32;45.83;96524.13;5008455;28;20042;-56
2023/05/09 06:09:57;;;;;;;13.15;7.90;;;;;;;21.76;46.97;96528.34;4998492;28;20086;-60
2023/05/09 06:12:25;;;;;;;10.70;7.60;;;;;;;21.49;46.94;96528.44;4994707;28;20090;-57
2023/05/09 06:14:56;;;;;;;12.55;7.55;;;;;;;21.51;48.10;96523.69;5010107;28;20575;-58
2023/05/09 06:17:29;;;;;;;9.43;7.63;;;;;;;22.26;46.63;96513.22;5007582;28;20066;-58
2023/05/09 06:19:58;;;;;;;11.10;7.93;;;;;;;23.02;43.34;96514.09;5006196;28;20483;-62
2023/05/09 06:22:26;;;;;;;10.40;7.60;;;;;;;23.03;43.47;96517.59;4999356;28;20794;-61
2023/05/09 06:24:54;;;;;;;12.40;7.78;;;;;;;23.16;43.04;96517.47;5008125;28;20096;-60
2023/05/09 06:27:22;;;;;;;12.88;7.75;;;;;;;22.91;43.48;96517.47;5009597;28;20572;-58
2023/05/09 06:29:51;;;;;;;11.82;8.27;;;;;;;22.96;43.03;96515.78;5003745;28;20538;-54
2023/05/09 06:32:20;;;;;;;10.25;7.22;;;;;;;22.60;44.41;96510.28;5010392;28;20213;-59
2023/05/09 06:34:49;;;;;;;13.77;7.88;;;;;;;22.21;45.16;96502.31;5000551;28;20084;-63
2023/05/09 06:37:18;;;;;;;14.05;8.45;;;;;;;22.08;44.53;96502.34;5012457;28;20042;-61
2023/05/09 06:39:46;;;;;;;15.40;8.75;;;;;;;22.27;45.01;96503.31;5014119;28;20499;-59
2023/05/09 06:42:15;;;;;;;12.35;8.52;;;;;;;23.21;43.31;96496.09;5008981;28;20092;-55
2023/05/09 06:44:43;;;;;;;13.25;8.90;;;;;;;23.48;43.60;96493.13;5003741;28;20092;-53
2023/05/09 06:47:12;;;;;;;13.32;9.13;;;;;;;23.14;43.75;96489.97;5003114;28;20090;-54
2023/05/09 06:49:40;;;;;;;11.35;9.05;;;;;;;22.64;44.77;96473.84;5008682;28;20481;-61
2023/05/09 06:52:11;;;;;;;13.68;8.68;;;;;;;22.93;44.31;96475.91;5006076;28;20092;-55
2023/05/09 06:54:49;;;;;;;12.05;9.10;;;;;;;23.69;43.76;96463.88;5011465;28;20053;-59
2023/05/09 06:57:21;;;;;;;13.85;9.50;;;;;;;23.73;42.15;96466.94;5012146;28;20080;-62
2023/05/09 06:59:50;;;;;;;13.93;9.07;;;;;;;23.65;42.62;96456.44;5011862;28;20435;-57
2023/05/09 07:02:18;;;;;;;12.82;7.75;;;;;;;23.37;43.40;96457.00;4995040;28;20543;-59
2023/05/09 07:04:47;;;;;;;12.77;9.63;;;;;;;23.91;41.74;96458.78;5011623;28;20069;-59
2023/05/09 07:07:17;;;;;;;12.05;9.27;;;;;;;23.56;42.72;96466.69;5000172;28;20077;-57
2023/05/09 07:09:45;;;;;;;16.67;9.20;;;;;;;23.71;42.77;96460.13;5008195;28;20089;-60
2023/05/09 07:12:14;;;;;;;12.55;9.88;;;;;;;23.66;42.89;96460.78;5010633;28;20085;-58
2023/05/09 07:14:42;;;;;;;12.77;9.48;;;;;;;23.45;43.23;96464.78;5008159;28;20081;-59
2023/05/09 07:17:11;;;;;;;13.07;9.60;;;;;;;24.11;41.68;96463.06;5002006;28;20092;-57
2023/05/09 07:19:50;;;;;;;14.32;9.75;;;;;;;23.74;43.13;96463.16;5007338;28;20446;-58
2023/05/09 07:22:20;;;;;;;12.25;9.15;;;;;;;24.44;41.59;96464.47;5010906;28;20093;-58
2023/05/09 07:24:49;;;;;;;11.38;8.60;;;;;;;24.52;41.57;96459.56;5012025;28;20073;-62
2023/05/09 07:27:17;;;;;;;13.23;9.73;;;;;;;25.65;40.57;96452.06;4992857;28;20084;-55
2023/05/09 07:29:47;;;;;;;11.35;9.25;;;;;;;25.89;40.89;96436.63;4994083;28;20442;-59
2023/05/09 07:32:16;;;;;;;11.82;9.00;;;;;;;24.44;41.50;96454.53;5010604;28;20454;-61
2023/05/09 07:34:44;;;;;;;9.95;7.63;;;;;;;25.36;40.16;96437.69;4998135;28;20080;-57
2023/05/09 07:37:13;;;;;;;12.05;8.13;;;;;;;25.09;40.35;96443.63;5002656;28;20767;-58
2023/05/09 07:39:46;;;;;;;;;;;;;;;25.48;39.46;96437.69;5009568;28;20054;-58
2023/05/09 07:42:14;;;;;;;13.35;8.50;;;;;;;25.54;39.29;96437.56;5010702;28;19967;-60
2023/05/09 07:44:43;;;;;;;12.63;9.20;;;;;;;25.67;39.39;96427.50;5009530;28;20085;-60
2023/05/09 07:47:11;;;;;;;14.27;9.38;;;;;;;25.91;38.24;96418.28;5004456;28;20085;-59
2023/05/09 07:49:42;;;;;;;12.65;8.80;;;;;;;25.19;39.43;96426.00;5009975;28;20077;-61
2023/05/09 07:52:10;;;;;;;;;;;;;;;25.12;40.26;96419.91;5011666;28;20069;-58
2023/05/09 07:54:39;;;;;;;10.07;8.55;;;;;;;25.23;39.91;96417.22;5005397;28;19968;-61
2023/05/09 07:57:09;;;;;;;10.55;8.35;;;;;;;25.96;37.58;96414.84;4990505;28;20062;-59
2023/05/09 07:59:37;;;;;;;10.35;7.25;;;;;;;25.39;39.63;96418.31;5006730;28;20077;-57
2023/05/09 08:02:06;;;;;;;11.15;8.23;;;;;;;26.24;38.33;96409.38;5012221;28;20451;-59
2023/05/09 08:04:36;;;;;;;12.55;8.73;;;;;;;26.74;37.60;96407.78;5005953;28;20081;-58
2023/05/09 08:07:06;;;;;;;11.40;9.10;;;;;;;26.88;37.31;96409.03;4996767;28;20092;-57
2023/05/09 08:09:34;;;;;;;13.27;8.98;;;;;;;27.05;36.88;96410.88;4992471;28;20399;-58
2023/05/09 08:12:02;;;;;;;11.70;8.35;;;;;;;26.04;38.26;96409.84;5008238;28;20085;-59
2023/05/09 08:14:32;;;;;;;11.38;8.95;;;;;;;26.00;38.42;96405.19;5010024;28;20068;-59
2023/05/09 08:17:00;;;;;;;11.57;8.73;;;;;;;24.96;39.83;96407.97;5002497;28;20457;-64
2023/05/09 08:19:29;;;;;;;13.07;8.90;;;;;;;25.63;39.60;96399.34;4998864;28;20509;-56
2023/05/09 08:21:57;;;;;;;12.43;9.25;;;;;;;25.80;38.47;96395.66;5014475;28;20085;-58
2023/05/09 08:24:25;;;;;;;10.18;7.97;;;;;;;25.85;38.85;96397.63;5003194;28;20717;-56
2023/05/09 08:26:54;;;;;;;13.30;8.63;;;;;;;25.21;39.76;96392.31;5005181;28;20464;-61
2023/05/09 08:29:22;;;;;;;13.32;9.60;;;;;;;26.00;38.88;96384.38;5009641;28;20104;-60
2023/05/09 08:31:52;;;;;;;12.23;9.07;;;;;;;25.68;38.91;96381.38;5005764;28;20619;-61
2023/05/09 08:34:20;;;;;;;10.07;8.35;;;;;;;26.37;37.00;96380.41;5009306;28;20130;-58
2023/05/09 08:36:49;;;;;;;10.75;8.90;;;;;;;25.41;39.17;96385.72;5009367;28;20081;-59
2023/05/09 08:39:18;;;;;;;10.88;8.57;;;;;;;26.50;38.27;96377.38;5003950;28;20085;-59
2023/05/09 08:41:46;;;;;;;10.60;9.30;;;;;;;26.65;38.06;96379.50;5008930;28;20089;-58
2023/05/09 08:44:14;;;;;;;11.90;9.75;;;;;;;26.77;37.93;96371.25;5006048;28;20065;-59
2023/05/09 08:46:48;;;;;;;12.20;9.93;;;;;;;26.77;38.11;96363.13;5004062;28;20077;-59
2023/05/09 08:49:18;;;;;;;13.15;10.10;;;;;;;26.12;37.97;96362.72;5007266;28;20050;-59
2023/05/09 08:51:48;;;;;;;11.48;9.27;;;;;;;27.92;36.31;96356.66;5004843;28;20138;-60
2023/05/09 08:54:17;;;;;;;11.48;9.10;;;;;;;27.97;37.30;96363.22;4998764;28;20470;-62
2023/05/09 08:56:47;;;;;;;;;;;;;;;28.44;34.86;96357.13;5006896;28;20092;-60
2023/05/09 08:59:17;;;;;;;14.63;9.57;;;;;;;27.55;36.41;96353.03;5001356;28;19987;-58
2023/05/09 09:01:46;;;;;;;11.85;9.68;;;;;;;26.39;37.44;96360.13;5007038;28;20077;-62
2023/05/09 09:04:14;;;;;;;14.77;10.10;;;;;;;27.75;35.97;96355.94;4989933;28;20066;-55
2023/05/09 09:06:44;;;;;;;12.65;9.63;;;;;;;27.35;36.14;96349.00;5001851;28;20073;-60
2023/05/09 09:09:13;;;;;;;13.73;10.70;;;;;;;28.11;35.58;96348.13;5009082;28;20089;-59
2023/05/09 09:11:42;;;;;;;13.40;10.23;;;;;;;27.08;35.88;96353.53;5013501;28;20476;-58
2023/05/09 09:14:12;;;;;;;14.55;10.73;;;;;;;27.09;36.21;96349.78;5007158;28;20490;-59
2023/05/09 09:16:44;;;;;;;14.02;10.50;;;;;;;26.98;35.74;96343.41;5011165;28;20096;-54
2023/05/09 09:19:17;;;;;;;12.05;10.73;;;;;;;27.53;35.74;96336.19;5001732;28;20049;-57
2023/05/09 09:21:52;;;;;;;14.05;11.10;;;;;;;26.88;35.84;96332.47;5008776;28;20065;-55
2023/05/09 09:24:26;;;;;;;14.93;11.82;;;;;;;26.56;37.63;96335.81;5004712;28;20085;-56
2023/05/09 09:26:54;;;;;;;15.00;11.50;;;;;;;26.65;37.50;96323.50;5009206;28;20081;-62
2023/05/09 09:29:23;;;;;;;13.98;10.88;;;;;;;27.70;36.39;96312.50;5007623;28;20085;-59
2023/05/09 09:31:53;;;;;;;14.43;11.35;;;;;;;27.39;36.98;96317.66;5008207;28;20107;-62
2023/05/09 09:34:23;;;;;;;15.38;11.68;;;;;;;28.14;37.26;96310.47;5011499;28;20538;-60
2023/05/09 09:36:53;;;;;;;15.57;12.07;;;;;;;27.86;36.87;96308.91;5009220;28;20096;-60
2023/05/09 09:39:21;;;;;;;15.55;12.30;;;;;;;28.92;35.73;96307.16;5004551;28;20067;-57
2023/05/09 09:41:50;;;;;;;19.70;12.40;;;;;;;28.85;35.93;96293.84;5005475;28;20085;-57
2023/05/09 09:44:19;;;;;;;15.55;12.52;;;;;;;28.20;36.74;96299.69;5008518;28;20161;-58
2023/05/09 09:46:50;;;;;;;15.40;12.00;;;;;;;27.80;37.96;96296.38;5000481;28;20097;-60
2023/05/09 09:49:20;;;;;;;17.52;12.77;;;;;;;27.31;38.35;96292.91;5005087;28;20604;-59
2023/05/09 09:51:54;;;;;;;17.02;12.77;;;;;;;28.38;36.58;96281.09;5008905;28;20041;-60
2023/05/09 09:54:26;;;;;;;17.35;12.32;;;;;;;28.02;37.39;96274.63;5007334;28;20048;-59
2023/05/09 09:56:55;;;;;;;16.08;10.82;;;;;;;27.83;38.69;96268.78;5002956;28;20082;-59
2023/05/09 09:59:24;;;;;;;18.27;12.63;;;;;;;28.38;38.56;96272.97;5005835;28;20104;-57
2023/05/09 10:01:55;;;;;;;17.42;13.35;;;;;;;29.58;35.33;96261.19;5006988;28;20057;-58
2023/05/09 10:04:24;;;;;;;15.13;12.75;;;;;;;28.68;37.06;96267.97;5010438;28;20696;-57
2023/05/09 10:06:54;;;;;;;15.07;13.00;;;;;;;27.83;37.23;96268.78;5007584;28;20089;-56
2023/05/09 10:09:23;;;;;;;15.40;11.88;;;;;;;27.88;37.20;96263.41;5007776;28;20077;-58
2023/05/09 10:11:52;;;;;;;14.90;12.05;;;;;;;27.50;37.28;96258.19;5008257;28;20081;-57
2023/05/09 10:14:22;;;;;;;18.42;12.57;;;;;;;28.40;36.67;96245.59;5002445;28;20085;-57
2023/05/09 10:16:52;;;;;;;15.23;12.90;;;;;;;27.97;36.66;96254.78;5004825;28;20049;-63
2023/05/09 10:19:22;;;;;;;16.30;13.43;;;;;;;29.55;35.10;96252.75;5007685;28;20447;-57
2023/05/09 10:21:52;;;;;;;15.52;11.90;;;;;;;28.99;35.80;96244.47;5003035;28;20081;-61
2023/05/09 10:24:27;;;;;;;;;;;;;;;27.76;37.10;96253.81;5004371;28;20085;-60
2023/05/09 10:27:00;;;;;;;17.20;13.38;;;;;;;28.33;36.00;96242.28;5007448;28;19967;-59
2023/05/09 10:29:30;;;;;;;20.52;13.20;;;;;;;29.27;34.71;96233.16;5005006;28;20085;-62
2023/05/09 10:32:01;;;;;;;17.55;12.98;;;;;;;29.91;35.29;96220.19;4998421;28;20120;-56
2023/05/09 10:34:31;;;;;;;18.52;11.80;;;;;;;28.72;35.82;96221.03;5003239;28;20082;-60
2023/05/09 10:37:00;;;;;;;;;;;;;;;28.95;35.65;96216.25;5008060;28;20089;-60
2023/05/09 10:39:30;;;;;;;14.73;11.57;;;;;;;28.02;36.38;96222.31;5002652;28;20412;-57
2023/05/09 10:41:59;;;;;;;;;;;;;;;28.97;35.51;96211.34;5008836;28;20081;-58
2023/05/09 10:44:28;;;;;;;15.88;13.00;;;;;;;28.70;36.47;96206.09;5007427;28;19999;-56
2023/05/09 10:46:56;;;;;;;17.30;13.70;;;;;;;28.84;36.59;96202.63;5004157;28;20077;-57
2023/05/09 10:49:25;;;;;;;19.92;14.63;;;;;;;28.39;36.40;96198.69;5004304;28;20089;-58
2023/05/09 10:51:53;;;;;;;15.82;13.00;;;;;;;28.95;35.63;96192.63;4990537;28;20518;-57
2023/05/09 10:54:32;;;;;;;18.00;14.25;;;;;;;29.08;34.71;96192.16;5002933;28;20112;-59
2023/05/09 10:57:00;;;;;;;16.65;13.85;;;;;;;28.15;35.97;96186.59;5012640;28;20089;-58
2023/05/09 10:59:36;;;;;;;18.15;13.32;;;;;;;29.00;34.69;96183.69;4991966;28;20086;-55
2023/05/09 11:02:05;;;;;;;15.90;11.85;;;;;;;29.24;34.65;96184.00;5000886;28;20089;-55
2023/05/09 11:04:34;;;;;;;19.23;12.40;;;;;;;29.55;34.77;96168.53;4999699;28;20085;-60
2023/05/09 11:07:02;;;;;;;16.23;12.88;;;;;;;29.01;34.62;96171.75;5006510;28;20124;-61
2023/05/09 11:09:34;;;;;;;15.75;12.93;;;;;;;29.62;33.72;96165.56;5003586;28;20090;-61
2023/05/09 11:12:10;;;;;;;14.93;12.45;;;;;;;29.66;34.55;96158.50;4991388;28;20079;-57
2023/05/09 11:14:41;;;;;;;18.65;13.25;;;;;;;30.26;34.34;96146.69;5009807;28;20537;-59
2023/05/09 11:17:11;;;;;;;16.08;13.75;;;;;;;29.76;34.79;96161.19;5010871;28;20666;-53
2023/05/09 11:20:00;;;;;;;13.85;9.98;;;;;;;29.53;33.97;96149.78;5008787;28;20088;-58
2023/05/09 11:22:31;;;;;;;14.88;12.35;;;;;;;29.19;34.21;96138.66;5005551;28;20084;-60
2023/05/09 11:25:05;;;;;;;14.63;10.65;;;;;;;29.74;33.89;96136.22;5011943;28;20085;-58
2023/05/09 11:27:40;;;;;;;17.17;13.60;;;;;;;29.78;34.02;96115.53;5009138;28;20038;-59
2023/05/09 11:30:09;;;;;;;16.88;14.18;;;;;;;30.17;34.95;96115.69;5010549;28;20084;-57
2023/05/09 11:33:05;;;;;;;14.98;12.80;;;;;;;30.60;33.66;96104.38;5012766;28;20084;-58
2023/05/09 11:35:38;;;;;;;18.17;14.60;;;;;;;29.84;35.59;96103.56;4988317;28;20057;-56